Terminal Aerodrome Forecast
Issued by NWS Cleveland, OH

Home | Current Version | Previous Version | Graphics & Text | Print | Product List | Glossary On
Versions: 1 2 3 4 5 6 7 8 9 10 11 12 13 14 15 16 17 18 19 20 21 22 23
000
FTUS41 KCLE 232300
TAFMFD
TAF
KMFD 232324Z 2400/2424 02011KT 2SM -SN OVC025
      TEMPO 2400/2402 1SM -SN OVC012
     FM240200 04006KT 6SM -SN OVC025
      TEMPO 2402/2404 3SM -SN BR OVC015
     FM240600 04005KT 6SM BR OVC020
     FM241200 05005KT P6SM OVC035
     FM241800 06006KT P6SM BKN045
     FM242100 06006KT P6SM SKC=

USA.gov is the U.S. government's official web portal to all federal, state and local government web resources and services.